Time;durP1;ratioP1;P1;durP2;ratioP2;P2;SDS_P1;SDS_P2;PMS_P1;PMS_P2;Temp;Humidity;BMP_temperature;BMP_pressure;BME280_temperature;BME280_humidity;BME280_pressure;Samples;Min_cycle;Max_cycle;Signal;HPM_P1;HPM_P2
2022/09/05 00:00:18;;;;;;;6.88;4.65;;;;;;;15.24;99.18;101605.34;1947092;28;20032;-70
2022/09/05 00:01:25;;;;;;;8.65;5.20;;;;;;;15.23;100.00;101608.06;1969729;28;20413;-71
2022/09/05 00:02:35;;;;;;;9.55;5.38;;;;;;;15.22;100.00;101607.19;1968354;28;20069;-70
2022/09/05 00:04:16;;;;;;;9.18;5.30;;;;;;;15.23;99.08;101605.41;1969819;28;20533;-70
2022/09/05 00:05:32;;;;;;;7.13;5.20;;;;;;;15.19;98.63;101602.94;1969789;28;20430;-70
2022/09/05 00:06:40;;;;;;;7.80;5.28;;;;;;;15.20;97.77;101611.69;1969715;28;20025;-70
2022/09/05 00:08:18;;;;;;;6.78;4.90;;;;;;;15.19;97.53;101602.06;1969668;28;20025;-70
2022/09/05 00:09:44;;;;;;;8.88;4.97;;;;;;;15.17;97.62;101604.81;1969778;28;20034;-70
2022/09/05 00:11:08;;;;;;;8.07;4.93;;;;;;;15.15;98.51;101598.75;1969623;28;20516;-72
2022/09/05 00:12:10;;;;;;;12.38;5.10;;;;;;;15.13;98.14;101603.25;1969704;28;20034;-71
2022/09/05 00:13:20;;;;;;;8.40;5.20;;;;;;;15.13;99.36;101603.25;1969752;28;20489;-71
2022/09/05 00:14:56;;;;;;;10.38;5.20;;;;;;;15.13;97.82;101603.25;1969351;28;20052;-70
2022/09/05 00:16:04;;;;;;;8.68;5.15;;;;;;;15.10;99.18;101592.91;1969633;28;20044;-71
2022/09/05 00:17:40;;;;;;;5.43;4.70;;;;;;;15.11;99.70;101602.47;1969725;28;20033;-70
2022/09/05 00:19:23;;;;;;;9.20;5.25;;;;;;;15.08;97.73;101601.78;1969613;28;20029;-71
2022/09/05 00:20:38;;;;;;;6.90;4.65;;;;;;;15.05;99.27;101593.13;1953189;28;20141;-71
2022/09/05 00:22:01;;;;;;;10.38;5.25;;;;;;;15.07;98.97;101603.56;1969765;28;20366;-71
2022/09/05 00:23:31;;;;;;;10.50;4.93;;;;;;;15.03;99.78;101602.00;1969741;28;20030;-71
2022/09/05 00:25:18;;;;;;;8.05;4.95;;;;;;;15.02;98.15;101600.31;1969640;28;20025;-71
2022/09/05 00:26:44;;;;;;;5.28;4.60;;;;;;;15.00;100.00;101607.41;1969598;28;20037;-71
2022/09/05 00:27:42;;;;;;;8.05;5.13;;;;;;;14.97;99.69;101602.28;1969713;28;20058;-71
2022/09/05 00:28:54;;;;;;;7.35;5.10;;;;;;;14.99;100.00;101601.28;1969519;28;20032;-71
2022/09/05 00:30:01;;;;;;;7.88;4.97;;;;;;;15.01;100.00;101603.84;1969629;28;20026;-71
2022/09/05 00:31:53;;;;;;;8.90;5.30;;;;;;;15.01;100.00;101598.59;1969453;28;20054;-71
2022/09/05 00:33:25;;;;;;;5.60;4.90;;;;;;;14.97;100.00;101602.28;1935854;29;20035;-71
2022/09/05 00:34:58;;;;;;;6.25;5.10;;;;;;;14.96;99.38;101603.22;1969662;28;20085;-71
2022/09/05 00:36:36;;;;;;;7.15;5.28;;;;;;;14.94;100.00;101598.03;1969637;28;20037;-71
2022/09/05 00:37:48;;;;;;;9.10;5.28;;;;;;;14.92;98.44;101605.16;1969561;28;20140;-70
2022/09/05 00:39:03;;;;;;;6.25;4.68;;;;;;;14.91;99.29;101599.06;1969512;28;20045;-71
2022/09/05 00:40:28;;;;;;;9.80;5.25;;;;;;;14.95;100.00;101599.75;1969473;28;20022;-70
2022/09/05 00:41:29;;;;;;;7.72;4.95;;;;;;;14.93;98.28;101599.84;1969568;28;20034;-71
2022/09/05 00:42:27;;;;;;;8.13;5.20;;;;;;;14.92;98.25;101595.50;1969626;28;20123;-70
2022/09/05 00:43:48;;;;;;;10.80;4.93;;;;;;;14.93;98.16;101591.97;1971595;28;20083;-72
2022/09/05 00:44:54;;;;;;;6.75;5.00;;;;;;;14.91;98.28;101599.06;1972197;28;20025;-70
2022/09/05 00:46:11;;;;;;;7.38;4.80;;;;;;;14.94;98.33;101592.78;1972042;28;20018;-70
2022/09/05 00:47:26;;;;;;;5.85;5.05;;;;;;;14.93;99.98;101591.97;1972281;28;20025;-71
2022/09/05 00:49:14;;;;;;;7.25;5.38;;;;;;;14.90;98.53;101589.47;1972194;28;20026;-70
2022/09/05 00:50:32;;;;;;;9.60;5.38;;;;;;;14.86;100.00;101590.56;1971952;28;20034;-71
2022/09/05 00:51:57;;;;;;;8.82;5.88;;;;;;;14.85;100.00;101596.72;1963747;28;20022;-71
2022/09/05 00:53:21;;;;;;;9.95;5.63;;;;;;;14.82;99.62;101596.03;1971735;28;20026;-70
2022/09/05 00:54:36;;;;;;;10.77;6.30;;;;;;;14.79;98.60;101591.78;1972091;28;20018;-70
2022/09/05 00:56:00;;;;;;;8.48;5.95;;;;;;;14.78;98.24;101590.91;1963927;28;20402;-70
2022/09/05 00:57:29;;;;;;;9.15;5.68;;;;;;;14.76;97.92;101589.25;1966843;28;20362;-71
2022/09/05 00:59:27;;;;;;;8.52;5.70;;;;;;;14.74;99.63;101580.56;1972068;28;20062;-71
2022/09/05 01:00:55;;;;;;;7.22;6.45;;;;;;;14.71;100.00;101591.25;1971843;28;20038;-70
2022/09/05 01:02:12;;;;;;;7.38;6.28;;;;;;;14.68;99.22;101587.84;1971961;28;20053;-70
2022/09/05 01:03:46;;;;;;;9.13;6.53;;;;;;;14.67;99.55;101586.16;1961353;28;20068;-70
2022/09/05 01:05:33;;;;;;;7.15;6.43;;;;;;;14.66;99.03;101592.34;1960087;28;20030;-71
2022/09/05 01:07:18;;;;;;;10.93;6.30;;;;;;;14.63;98.73;101595.09;1969779;28;20448;-70
2022/09/05 01:08:33;;;;;;;8.63;5.70;;;;;;;14.60;100.00;101584.72;1971989;28;20479;-71
2022/09/05 01:10:08;;;;;;;8.82;6.10;;;;;;;14.58;99.16;101589.22;1963834;28;20037;-70
2022/09/05 01:11:56;;;;;;;8.05;6.15;;;;;;;14.54;98.64;101590.25;1968155;28;20177;-70
2022/09/05 01:13:25;;;;;;;8.70;6.15;;;;;;;14.52;100.00;101592.13;1955512;28;20055;-71
2022/09/05 01:14:50;;;;;;;7.20;6.18;;;;;;;14.49;99.75;101593.13;1963521;28;20544;-71
2022/09/05 01:16:21;;;;;;;7.30;6.60;;;;;;;14.51;100.00;101582.56;1971964;28;20045;-70
2022/09/05 01:17:49;;;;;;;7.00;6.30;;;;;;;14.46;99.89;101582.75;1972024;28;20048;-71
2022/09/05 01:18:59;;;;;;;6.50;5.80;;;;;;;14.46;99.65;101588.00;1971895;28;20056;-70
2022/09/05 01:20:18;;;;;;;10.18;6.45;;;;;;;14.46;100.00;101588.00;1971934;28;20513;-70
2022/09/05 01:21:18;;;;;;;8.90;6.28;;;;;;;14.46;99.32;101587.16;1971941;28;20030;-70
2022/09/05 01:22:56;;;;;;;9.02;6.45;;;;;;;14.47;99.12;101591.50;1972069;28;20486;-70
2022/09/05 01:24:19;;;;;;;7.53;6.22;;;;;;;14.42;99.77;101592.56;1971985;28;20022;-70
2022/09/05 01:25:43;;;;;;;8.85;6.40;;;;;;;14.41;99.05;101588.22;1971384;28;20531;-71
2022/09/05 01:26:58;;;;;;;6.55;5.68;;;;;;;14.40;100.00;101590.91;1976707;28;20034;-70
2022/09/05 01:28:14;;;;;;;6.70;6.00;;;;;;;14.38;100.00;101582.28;1971968;28;20056;-69
2022/09/05 01:30:03;;;;;;;7.13;5.70;;;;;;;14.39;100.00;101595.34;1971906;28;20377;-69
2022/09/05 01:31:32;;;;;;;7.95;6.13;;;;;;;14.34;99.62;101589.44;1966433;28;20042;-71
2022/09/05 01:33:04;;;;;;;6.93;6.25;;;;;;;14.36;100.00;101587.59;1965748;28;20064;-72
2022/09/05 01:34:28;;;;;;;8.18;5.88;;;;;;;14.32;100.00;101591.28;1963574;28;20022;-71
2022/09/05 01:35:49;;;;;;;7.25;6.30;;;;;;;14.31;100.00;101589.59;1966419;28;20030;-71
2022/09/05 01:37:18;;;;;;;8.27;5.90;;;;;;;14.28;100.00;101580.09;1971894;28;20420;-71
2022/09/05 01:38:32;;;;;;;7.45;5.95;;;;;;;14.28;100.00;101589.72;1971875;28;20033;-70
2022/09/05 01:40:08;;;;;;;8.45;6.03;;;;;;;14.28;100.00;101589.72;1971821;28;20080;-70
2022/09/05 01:41:48;;;;;;;7.20;5.88;;;;;;;14.24;100.00;101589.00;1972049;28;20694;-70
2022/09/05 01:43:22;;;;;;;9.23;6.15;;;;;;;14.23;100.00;101586.47;1963705;28;20026;-70
2022/09/05 01:44:54;;;;;;;7.43;6.40;;;;;;;14.23;100.00;101586.47;1967983;28;20026;-71
2022/09/05 01:46:05;;;;;;;8.48;6.00;;;;;;;14.19;100.00;101591.00;1971811;28;20040;-70
2022/09/05 01:47:14;;;;;;;7.07;5.95;;;;;;;14.21;100.00;101583.06;1971981;28;20040;-70
2022/09/05 01:49:07;;;;;;;9.35;6.53;;;;;;;14.22;100.00;101585.63;1971282;28;20183;-70
2022/09/05 01:51:05;;;;;;;6.60;6.00;;;;;;;14.16;100.00;101586.75;1971753;28;20030;-71
2022/09/05 01:52:27;;;;;;;7.40;5.90;;;;;;;14.13;100.00;101580.78;1940400;29;20069;-71
2022/09/05 01:53:48;;;;;;;7.40;6.20;;;;;;;14.14;100.00;101578.06;1940473;29;20592;-70
2022/09/05 01:55:24;;;;;;;6.85;6.13;;;;;;;14.14;100.00;101583.31;1938670;29;20071;-71
2022/09/05 01:56:41;;;;;;;9.18;6.35;;;;;;;14.12;100.00;101584.31;1939173;29;20087;-71
2022/09/05 01:58:12;;;;;;;8.95;6.68;;;;;;;14.12;100.00;101587.81;1948529;28;20038;-71
2022/09/05 01:59:26;;;;;;;8.18;6.35;;;;;;;14.11;100.00;101583.50;1966073;28;20030;-70
2022/09/05 02:00:36;;;;;;;7.25;6.50;;;;;;;14.11;100.00;101577.38;1970586;28;20045;-71
2022/09/05 02:02:10;;;;;;;;;;;;;;;14.07;100.00;101581.94;1970938;28;20061;-72
2022/09/05 02:03:32;;;;;;;9.23;6.07;;;;;;;14.04;100.00;101592.56;1968195;28;20003;-71
2022/09/05 02:04:48;;;;;;;8.18;5.82;;;;;;;14.05;100.00;101581.13;1970838;28;20034;-71
2022/09/05 02:06:07;;;;;;;7.10;6.15;;;;;;;14.09;100.00;101582.69;1970656;28;20036;-71
2022/09/05 02:08:04;;;;;;;7.88;5.97;;;;;;;14.06;100.00;101580.19;1970613;28;20088;-72
2022/09/05 02:09:31;;;;;;;6.85;5.93;;;;;;;14.03;100.00;101578.56;1961994;28;20030;-71
2022/09/05 02:11:02;;;;;;;7.10;6.40;;;;;;;14.00;100.00;101581.31;1962073;28;20319;-71
2022/09/05 02:12:19;;;;;;;8.43;6.28;;;;;;;14.04;100.00;101592.56;1961989;28;20049;-71
2022/09/05 02:13:43;;;;;;;9.63;7.03;;;;;;;14.10;100.00;101586.19;1954216;28;20121;-71
2022/09/05 02:14:57;;;;;;;10.60;6.63;;;;;;;14.10;100.00;101580.94;1963757;28;20137;-71
2022/09/05 02:16:39;;;;;;;7.85;6.47;;;;;;;14.11;100.00;101575.63;1970338;28;20041;-71
2022/09/05 02:17:39;;;;;;;8.68;6.40;;;;;;;14.12;100.00;101585.19;1970541;28;20592;-71
2022/09/05 02:19:07;;;;;;;7.35;6.47;;;;;;;14.14;100.00;101593.81;1970592;28;20033;-72
2022/09/05 02:20:39;;;;;;;8.48;6.63;;;;;;;14.10;100.00;101587.00;1970415;28;20060;-71
2022/09/05 02:21:55;;;;;;;10.65;6.50;;;;;;;14.09;100.00;101589.72;1966279;28;20081;-71
2022/09/05 02:22:55;;;;;;;9.00;5.95;;;;;;;14.06;100.00;101590.69;1962190;28;20074;-71
2022/09/05 02:24:14;;;;;;;8.90;6.28;;;;;;;14.06;100.00;101590.69;1962207;28;20022;-71
2022/09/05 02:25:29;;;;;;;10.73;6.53;;;;;;;14.07;100.00;101597.66;1970541;28;20030;-71
2022/09/05 02:26:41;;;;;;;10.80;7.50;;;;;;;14.05;100.00;101589.00;1970557;28;20029;-71
2022/09/05 02:27:58;;;;;;;8.15;6.43;;;;;;;14.04;100.00;101595.19;1970361;28;20029;-71
2022/09/05 02:29:36;;;;;;;6.32;5.72;;;;;;;14.01;100.00;101593.56;1970375;28;20474;-71
2022/09/05 02:30:43;;;;;;;8.32;6.15;;;;;;;14.00;100.00;101596.25;1970484;28;20097;-71
2022/09/05 02:31:49;;;;;;;8.05;5.85;;;;;;;13.98;100.00;101598.94;1970486;28;20067;-70
2022/09/05 02:33:09;;;;;;;7.07;6.25;;;;;;;13.98;100.00;101598.06;1968126;28;20025;-71
2022/09/05 02:34:36;;;;;;;8.43;6.60;;;;;;;13.92;100.00;101600.97;1970437;28;20097;-72
2022/09/05 02:36:06;;;;;;;7.15;6.13;;;;;;;13.88;100.00;101598.50;1970459;28;20037;-70
2022/09/05 02:37:07;;;;;;;8.82;7.45;;;;;;;13.85;100.00;101598.63;1970450;28;20029;-71
2022/09/05 02:38:31;;;;;;;7.97;7.18;;;;;;;13.87;100.00;101602.03;1962015;28;20034;-71
2022/09/05 02:39:47;;;;;;;10.02;7.20;;;;;;;13.86;100.00;101602.94;1965033;28;20498;-71
2022/09/05 02:41:08;;;;;;;11.13;7.45;;;;;;;13.83;100.00;101600.47;1970321;28;20083;-71
2022/09/05 02:42:18;;;;;;;8.57;7.07;;;;;;;13.81;100.00;101602.31;1970357;28;20478;-71
2022/09/05 02:43:34;;;;;;;8.35;6.50;;;;;;;13.81;100.00;101597.06;1970383;28;20040;-71
2022/09/05 02:44:54;;;;;;;9.95;6.97;;;;;;;13.80;100.00;101599.75;1970409;28;20057;-70
2022/09/05 02:46:25;;;;;;;7.97;6.88;;;;;;;13.77;100.00;101600.72;1970329;28;20025;-71
2022/09/05 02:47:45;;;;;;;9.98;6.88;;;;;;;13.72;100.00;101592.22;1970398;28;20084;-70
2022/09/05 02:49:07;;;;;;;8.32;6.93;;;;;;;13.69;100.00;101601.06;1970280;28;20030;-71
2022/09/05 02:50:23;;;;;;;12.93;6.72;;;;;;;13.65;100.00;101602.97;1970389;28;20244;-71
2022/09/05 02:51:33;;;;;;;10.57;6.78;;;;;;;13.65;100.00;101594.25;1970271;28;20571;-71
2022/09/05 02:52:35;;;;;;;;;;;;;;;13.65;100.00;101602.09;1970683;28;20061;-71
2022/09/05 02:53:37;;;;;;;8.27;6.90;;;;;;;13.59;100.00;101597.16;1970315;28;19913;-71
2022/09/05 02:54:47;;;;;;;8.10;7.30;;;;;;;13.61;100.00;101606.66;1970296;28;20080;-71
2022/09/05 02:56:17;;;;;;;7.55;6.75;;;;;;;13.60;100.00;101597.09;1970302;28;20040;-71
2022/09/05 02:57:37;;;;;;;10.52;7.10;;;;;;;13.58;100.00;101606.78;1970198;28;20101;-71
2022/09/05 02:58:46;;;;;;;7.90;7.10;;;;;;;13.59;100.00;101605.00;1970269;28;20034;-71
2022/09/05 02:59:59;;;;;;;9.05;7.60;;;;;;;13.57;100.00;101597.22;1970051;28;20104;-71
2022/09/05 03:01:34;;;;;;;9.00;7.28;;;;;;;13.56;100.00;101598.13;1970063;28;20477;-71
2022/09/05 03:03:27;;;;;;;9.57;7.00;;;;;;;13.54;100.00;101601.75;1959499;28;20046;-70
2022/09/05 03:04:33;;;;;;;9.85;7.35;;;;;;;13.48;100.00;101600.22;1937724;29;20039;-70
2022/09/05 03:05:58;;;;;;;9.70;7.18;;;;;;;13.50;100.00;101598.38;1970157;28;20033;-70
2022/09/05 03:07:24;;;;;;;9.70;7.13;;;;;;;13.49;100.00;101601.94;1970316;28;20385;-70
2022/09/05 03:09:06;;;;;;;9.43;7.18;;;;;;;13.49;100.00;101600.16;1961865;28;20018;-70
2022/09/05 03:10:34;;;;;;;7.95;6.93;;;;;;;13.44;100.00;101598.63;1964315;28;20134;-70
2022/09/05 03:11:32;;;;;;;8.57;7.50;;;;;;;13.43;100.00;101602.16;1970058;28;20030;-70
2022/09/05 03:13:26;;;;;;;9.50;6.75;;;;;;;13.47;100.00;101595.84;1970176;28;20025;-70
2022/09/05 03:15:00;;;;;;;9.18;6.97;;;;;;;13.41;100.00;101593.50;1970118;28;20065;-70
2022/09/05 03:16:25;;;;;;;11.85;7.10;;;;;;;13.37;100.00;101592.78;1969927;28;20100;-71
2022/09/05 03:18:01;;;;;;;10.75;7.10;;;;;;;13.36;100.00;101596.31;1970174;28;20112;-71
2022/09/05 03:20:14;;;;;;;10.50;7.45;;;;;;;13.37;100.00;101593.63;1970153;28;20029;-71
2022/09/05 03:21:33;;;;;;;11.07;7.63;;;;;;;13.30;100.00;101594.81;1961495;28;20406;-70
2022/09/05 03:22:52;;;;;;;12.57;7.15;;;;;;;13.30;100.00;101592.19;1961454;28;20042;-71
2022/09/05 03:24:43;;;;;;;9.15;7.22;;;;;;;13.34;100.00;101590.31;1961454;28;20034;-70
2022/09/05 03:26:14;;;;;;;10.07;7.10;;;;;;;13.29;100.00;101606.22;1938448;29;20040;-70
2022/09/05 03:27:52;;;;;;;10.35;7.50;;;;;;;13.26;100.00;101595.84;1953771;28;20413;-70
2022/09/05 03:29:27;;;;;;;9.90;7.57;;;;;;;13.27;100.00;101593.19;1961468;28;20030;-70
2022/09/05 03:30:55;;;;;;;10.05;7.38;;;;;;;13.24;100.00;101597.72;1965946;28;20034;-70
2022/09/05 03:32:31;;;;;;;11.43;7.35;;;;;;;13.26;100.00;101595.84;1961682;28;20034;-70
2022/09/05 03:34:10;;;;;;;8.50;7.15;;;;;;;13.27;100.00;101594.94;1965921;28;20034;-70
2022/09/05 03:36:17;;;;;;;7.90;6.93;;;;;;;13.22;100.00;101594.28;1966605;28;20038;-70
2022/09/05 03:37:32;;;;;;;9.18;7.43;;;;;;;13.18;100.00;101597.94;1938431;29;20038;-70
2022/09/05 03:38:48;;;;;;;11.38;7.55;;;;;;;13.17;100.00;101601.50;1961440;28;20038;-71
2022/09/05 03:40:26;;;;;;;9.27;7.68;;;;;;;13.20;100.00;101585.63;1969894;28;20490;-70
2022/09/05 03:42:04;;;;;;;10.68;7.35;;;;;;;13.16;100.00;101594.53;1969889;28;20029;-70
2022/09/05 03:43:43;;;;;;;10.30;7.13;;;;;;;13.13;100.00;101591.13;1969940;28;20030;-71
2022/09/05 03:45:13;;;;;;;8.98;7.50;;;;;;;13.11;100.00;101594.72;1938356;29;20035;-71
2022/09/05 03:46:11;;;;;;;9.25;7.82;;;;;;;13.08;100.00;101592.22;1965487;28;20397;-71
2022/09/05 03:48:00;;;;;;;8.68;7.07;;;;;;;13.14;100.00;101592.00;1969891;28;20057;-71
2022/09/05 03:49:19;;;;;;;7.97;7.22;;;;;;;13.06;100.00;101594.91;1961556;28;20408;-70
2022/09/05 03:50:48;;;;;;;10.55;7.55;;;;;;;13.07;100.00;101591.38;1963767;28;20030;-71
2022/09/05 03:52:21;;;;;;;8.60;7.60;;;;;;;13.05;100.00;101592.34;1969809;28;20104;-70
2022/09/05 03:53:41;;;;;;;10.15;7.70;;;;;;;13.04;100.00;101595.91;1969780;28;20060;-70
2022/09/05 03:55:03;;;;;;;9.60;7.38;;;;;;;13.08;100.00;101592.22;1969899;28;20076;-71
2022/09/05 03:56:25;;;;;;;10.40;8.07;;;;;;;13.11;100.00;101598.19;1969821;28;20112;-71
2022/09/05 03:58:09;;;;;;;11.55;8.23;;;;;;;13.11;100.00;101589.50;1969872;28;20029;-71
2022/09/05 04:00:01;;;;;;;10.73;7.90;;;;;;;13.08;100.00;101585.25;1969791;28;20100;-71
2022/09/05 04:01:14;;;;;;;9.00;8.00;;;;;;;13.03;100.00;101595.03;1969824;28;20478;-71
2022/09/05 04:02:20;;;;;;;9.43;8.07;;;;;;;13.04;100.00;101594.13;1969917;28;20049;-71
2022/09/05 04:03:31;;;;;;;10.55;8.00;;;;;;;13.09;100.00;101599.16;1967605;28;20397;-71
2022/09/05 04:04:42;;;;;;;;;;;;;;;13.11;100.00;101592.94;1961951;28;20037;-71
2022/09/05 04:05:51;;;;;;;8.57;7.15;;;;;;;13.07;100.00;101591.38;1962449;28;19932;-71
2022/09/05 04:07:01;;;;;;;9.63;7.65;;;;;;;13.09;100.00;101589.56;1969915;28;20474;-71
2022/09/05 04:08:21;;;;;;;9.10;7.95;;;;;;;13.06;100.00;101587.06;1969760;28;20032;-71
2022/09/05 04:09:36;;;;;;;10.55;7.97;;;;;;;13.05;100.00;101582.72;1969777;28;20026;-71
2022/09/05 04:10:53;;;;;;;11.32;8.07;;;;;;;13.03;100.00;101589.78;1969744;28;20037;-71
2022/09/05 04:12:12;;;;;;;8.70;7.57;;;;;;;13.06;100.00;101594.91;1969770;28;20433;-72
2022/09/05 04:13:37;;;;;;;11.68;7.70;;;;;;;13.11;100.00;101598.19;1969720;28;20060;-71
2022/09/05 04:14:50;;;;;;;9.20;7.57;;;;;;;13.14;100.00;101590.19;1969733;28;20053;-72
2022/09/05 04:16:04;;;;;;;11.55;8.25;;;;;;;13.14;100.00;101592.00;1969715;28;20185;-71
2022/09/05 04:17:17;;;;;;;10.82;7.45;;;;;;;13.11;100.00;101592.94;1969675;28;20444;-71
2022/09/05 04:18:17;;;;;;;8.65;7.75;;;;;;;13.10;100.00;101590.38;1960805;28;20037;-71
2022/09/05 04:19:39;;;;;;;9.80;7.97;;;;;;;13.10;100.00;101590.38;1961518;28;20065;-71
2022/09/05 04:20:54;;;;;;;9.95;7.72;;;;;;;13.08;100.00;101597.47;1969667;28;20038;-71
2022/09/05 04:22:25;;;;;;;12.50;8.80;;;;;;;13.06;100.00;101600.16;1969805;28;20029;-71
2022/09/05 04:23:47;;;;;;;10.45;8.50;;;;;;;13.01;100.00;101594.25;1969748;28;20037;-70
2022/09/05 04:25:14;;;;;;;11.43;8.35;;;;;;;13.00;100.00;101595.16;1961308;28;20063;-71
2022/09/05 04:27:00;;;;;;;11.00;8.07;;;;;;;13.04;100.00;101599.38;1964773;28;20054;-71
2022/09/05 04:28:18;;;;;;;9.73;7.93;;;;;;;12.97;100.00;101587.44;1969777;28;20022;-71
2022/09/05 04:29:53;;;;;;;9.57;8.45;;;;;;;12.95;100.00;101592.75;1969505;28;20025;-70
2022/09/05 04:31:08;;;;;;;13.57;8.65;;;;;;;12.93;100.00;101591.09;1968851;28;20037;-71
2022/09/05 04:32:37;;;;;;;14.27;9.20;;;;;;;12.93;100.00;101585.88;1969675;28;20026;-70
2022/09/05 04:33:46;;;;;;;11.32;8.95;;;;;;;12.90;100.00;101588.59;1961251;28;20184;-70
2022/09/05 04:35:05;;;;;;;12.18;8.75;;;;;;;12.89;100.00;101592.97;1962151;28;20394;-70
2022/09/05 04:36:29;;;;;;;12.67;9.30;;;;;;;12.91;100.00;101593.78;1969656;28;20120;-70
2022/09/05 04:37:58;;;;;;;12.35;9.77;;;;;;;12.88;100.00;101592.13;1969545;28;20272;-70
2022/09/05 04:39:23;;;;;;;11.68;9.93;;;;;;;12.86;100.00;101596.56;1961277;28;20030;-70
2022/09/05 04:40:45;;;;;;;10.13;9.05;;;;;;;12.85;100.00;101596.63;1964415;28;20030;-70
2022/09/05 04:41:49;;;;;;;10.55;9.07;;;;;;;12.84;100.00;101593.19;1969446;28;20044;-70
2022/09/05 04:42:48;;;;;;;10.77;9.68;;;;;;;12.84;100.00;101595.81;1961309;28;20057;-71
2022/09/05 04:44:05;;;;;;;12.50;9.40;;;;;;;12.87;100.00;101600.06;1961214;28;20067;-71
2022/09/05 04:45:13;;;;;;;16.00;10.50;;;;;;;12.84;100.00;101601.03;1961246;28;20029;-70
2022/09/05 04:46:29;;;;;;;13.30;10.15;;;;;;;12.84;100.00;101595.81;1954183;28;20054;-70
2022/09/05 04:47:36;;;;;;;12.43;10.15;;;;;;;12.83;100.00;101601.09;1955091;28;20027;-70
2022/09/05 04:48:50;;;;;;;12.50;10.23;;;;;;;12.83;100.00;101604.53;1961858;28;20061;-71
2022/09/05 04:50:14;;;;;;;11.63;9.32;;;;;;;12.80;100.00;101599.41;1969588;28;20630;-70
2022/09/05 04:51:47;;;;;;;14.40;10.15;;;;;;;12.80;100.00;101596.81;1967074;28;20041;-70
2022/09/05 04:53:39;;;;;;;13.43;10.50;;;;;;;12.78;100.00;101600.41;1969593;28;20551;-71
2022/09/05 04:55:07;;;;;;;16.75;11.48;;;;;;;12.74;100.00;101602.31;1945746;29;20046;-70
2022/09/05 04:56:17;;;;;;;15.85;10.88;;;;;;;12.73;100.00;101604.06;1938051;29;20035;-70
2022/09/05 04:57:39;;;;;;;14.30;9.98;;;;;;;12.75;100.00;101614.47;1945800;29;20117;-72
2022/09/05 04:58:51;;;;;;;11.68;9.50;;;;;;;12.85;100.00;101610.59;1945611;29;20035;-71
2022/09/05 05:00:00;;;;;;;13.63;9.57;;;;;;;12.84;100.00;101614.13;1952049;28;20123;-71
2022/09/05 05:01:10;;;;;;;10.95;9.77;;;;;;;12.90;100.00;101609.56;1969465;28;20470;-70
2022/09/05 05:02:37;;;;;;;12.35;9.30;;;;;;;12.90;100.00;101604.31;1969506;28;20048;-70
2022/09/05 05:03:35;;;;;;;11.23;9.20;;;;;;;12.87;100.00;101611.38;1961458;28;20046;-70
2022/09/05 05:04:33;;;;;;;11.90;9.65;;;;;;;12.90;100.00;101609.56;1969482;28;20034;-71
2022/09/05 05:05:53;;;;;;;12.35;9.68;;;;;;;12.93;100.00;101612.88;1969529;28;20090;-72
2022/09/05 05:07:39;;;;;;;11.00;9.65;;;;;;;12.87;100.00;101616.59;1969487;28;20033;-70
2022/09/05 05:09:26;;;;;;;12.43;9.07;;;;;;;12.87;100.00;101610.53;1961426;28;20528;-70
2022/09/05 05:10:43;;;;;;;13.00;9.55;;;;;;;12.84;100.00;101622.00;1960306;28;20505;-70
2022/09/05 05:11:56;;;;;;;10.82;9.38;;;;;;;12.85;100.00;101609.72;1969528;28;20044;-70
2022/09/05 05:13:14;;;;;;;13.02;9.02;;;;;;;12.87;100.00;101614.00;1969485;28;20424;-70
2022/09/05 05:14:30;;;;;;;16.35;8.98;;;;;;;12.87;100.00;101614.00;1969464;28;20116;-70
2022/09/05 05:15:31;;;;;;;14.20;9.23;;;;;;;12.87;100.00;101610.53;1969485;28;20061;-70
2022/09/05 05:16:40;;;;;;;10.80;9.40;;;;;;;12.88;100.00;101613.09;1969426;28;20127;-70
2022/09/05 05:17:51;;;;;;;12.25;9.40;;;;;;;12.91;100.00;101616.50;1969429;28;20521;-70
2022/09/05 05:19:08;;;;;;;13.63;9.50;;;;;;;12.91;100.00;101611.25;1969470;28;20064;-71
2022/09/05 05:20:19;;;;;;;12.48;9.77;;;;;;;12.88;100.00;101610.47;1969490;28;20067;-70
2022/09/05 05:21:21;;;;;;;10.98;9.88;;;;;;;12.91;100.00;101621.72;1969404;28;20037;-71
2022/09/05 05:22:19;;;;;;;10.27;9.25;;;;;;;12.92;100.00;101618.19;1969681;28;20052;-70
2022/09/05 05:23:27;;;;;;;13.77;9.73;;;;;;;12.94;100.00;101611.13;1969408;28;20033;-70
2022/09/05 05:24:34;;;;;;;11.68;9.98;;;;;;;12.93;100.00;101615.50;1969476;28;20038;-70
2022/09/05 05:26:01;;;;;;;11.23;9.40;;;;;;;12.96;100.00;101615.38;1969431;28;20034;-70
2022/09/05 05:27:24;;;;;;;11.30;8.82;;;;;;;12.96;100.00;101614.53;1961044;28;20450;-71
2022/09/05 05:28:44;;;;;;;13.75;9.30;;;;;;;12.95;100.00;101623.31;1963933;28;20031;-70
2022/09/05 05:30:05;;;;;;;11.77;9.23;;;;;;;12.97;100.00;101616.25;1969287;28;20030;-70
2022/09/05 05:31:19;;;;;;;15.20;10.48;;;;;;;12.96;100.00;101622.38;1970805;28;20032;-70
2022/09/05 05:32:24;;;;;;;11.45;10.18;;;;;;;12.97;100.00;101626.75;1970951;28;20037;-70
2022/09/05 05:33:36;;;;;;;12.35;10.43;;;;;;;13.01;100.00;101618.66;1968859;28;20037;-70
2022/09/05 05:34:41;;;;;;;13.45;10.15;;;;;;;13.03;100.00;101621.22;1970920;28;20064;-70
2022/09/05 05:35:40;;;;;;;12.70;10.30;;;;;;;13.05;100.00;101622.03;1970824;28;20432;-71
2022/09/05 05:36:53;;;;;;;14.95;9.93;;;;;;;13.08;100.00;101624.53;1970923;28;20388;-71
2022/09/05 05:38:15;;;;;;;11.50;9.68;;;;;;;13.08;100.00;101624.53;1970626;28;20030;-71
2022/09/05 05:39:24;;;;;;;10.73;9.45;;;;;;;13.11;100.00;101624.38;1970722;28;20021;-70
2022/09/05 05:40:28;;;;;;;15.80;9.52;;;;;;;13.12;100.00;101623.50;1970656;28;20104;-70
2022/09/05 05:41:56;;;;;;;14.82;9.65;;;;;;;13.16;100.00;101628.59;1970699;28;20420;-70
2022/09/05 05:43:15;;;;;;;10.07;9.07;;;;;;;13.16;100.00;101632.06;1970760;28;20093;-70
2022/09/05 05:44:25;;;;;;;11.55;9.20;;;;;;;13.21;100.00;101624.03;1970672;28;20036;-70
2022/09/05 05:45:30;;;;;;;11.95;10.30;;;;;;;13.23;100.00;101622.19;1962347;28;20088;-70
2022/09/05 05:46:35;;;;;;;12.98;9.80;;;;;;;13.25;100.00;101621.19;1962634;28;20528;-70
2022/09/05 05:47:46;;;;;;;12.82;9.73;;;;;;;13.27;100.00;101619.38;1970705;28;20092;-70
2022/09/05 05:48:46;;;;;;;12.90;10.10;;;;;;;13.29;100.00;101621.94;1970739;28;20029;-70
2022/09/05 05:49:58;;;;;;;16.15;10.00;;;;;;;13.33;100.00;101622.66;1970576;28;20091;-70
2022/09/05 05:51:27;;;;;;;13.70;9.38;;;;;;;13.36;100.00;101615.53;1970768;28;20030;-70
2022/09/05 05:52:56;;;;;;;13.75;9.90;;;;;;;13.35;100.00;101619.03;1970648;28;20103;-70
2022/09/05 05:54:24;;;;;;;13.77;10.18;;;;;;;13.37;100.00;101626.84;1970437;28;20052;-71
2022/09/05 05:55:54;;;;;;;16.48;10.13;;;;;;;13.45;100.00;101622.13;1970649;28;20061;-70
2022/09/05 05:57:46;;;;;;;14.15;10.82;;;;;;;13.48;100.00;101631.66;1970635;28;20021;-70
2022/09/05 05:59:31;;;;;;;11.93;9.95;;;;;;;13.50;100.00;101624.59;1970605;28;20029;-70
2022/09/05 06:00:54;;;;;;;12.32;10.02;;;;;;;13.57;100.00;101635.69;1962268;28;20034;-70
2022/09/05 06:01:57;;;;;;;14.88;9.82;;;;;;;13.60;100.00;101630.31;1956978;28;20059;-72
2022/09/05 06:03:51;;;;;;;11.23;9.57;;;;;;;13.65;100.00;101629.19;1959939;28;20364;-71
2022/09/05 06:05:24;;;;;;;11.50;9.63;;;;;;;13.70;100.00;101631.63;1953577;28;20602;-71
2022/09/05 06:06:58;;;;;;;11.95;9.57;;;;;;;13.80;100.00;101637.34;1965927;28;20030;-71
2022/09/05 06:08:35;;;;;;;12.90;9.70;;;;;;;13.92;100.00;101637.72;1969226;28;20022;-70
2022/09/05 06:10:11;;;;;;;10.98;9.80;;;;;;;14.03;100.00;101641.56;1962260;28;20121;-70
2022/09/05 06:11:48;;;;;;;10.50;9.20;;;;;;;14.15;100.00;101640.16;1966890;28;20050;-70
2022/09/05 06:13:37;;;;;;;11.60;9.00;;;;;;;14.27;100.00;101640.53;1962824;28;20105;-70
2022/09/05 06:15:27;;;;;;;11.50;10.30;;;;;;;14.45;100.00;101644.09;1962792;28;20042;-70
2022/09/05 06:16:52;;;;;;;9.90;8.90;;;;;;;14.57;100.00;101641.81;1969415;28;20108;-70
2022/09/05 06:18:29;;;;;;;10.70;9.25;;;;;;;14.78;100.00;101646.09;1970563;28;20038;-70